createdAt,value
2019-04-04T00:01:21.571Z,29.03
2019-04-04T00:03:52.804Z,29.90
2019-04-04T00:06:25.072Z,28.77
2019-04-04T00:08:56.414Z,28.30
2019-04-04T00:11:27.842Z,30.73
2019-04-04T00:14:00.127Z,29.50
2019-04-04T00:16:30.848Z,26.80
2019-04-04T00:19:02.367Z,30.10
2019-04-04T00:21:33.957Z,31.77
2019-04-04T00:24:08.787Z,29.93
2019-04-04T00:26:41.751Z,31.00
2019-04-04T00:29:12.023Z,30.37
2019-04-04T00:31:43.365Z,33.47
2019-04-04T00:34:17.006Z,33.17
2019-04-04T00:36:50.978Z,32.07
2019-04-04T00:39:21.930Z,34.43
2019-04-04T00:41:53.533Z,35.17
2019-04-04T00:44:24.348Z,31.93
2019-04-04T00:46:56.669Z,33.10
2019-04-04T00:49:27.787Z,31.20
2019-04-04T00:51:59.051Z,31.07
2019-04-04T00:54:30.172Z,32.93
2019-04-04T00:57:02.656Z,28.97
2019-04-04T00:59:33.729Z,30.70
2019-04-04T01:02:05.006Z,31.70
2019-04-04T01:04:35.878Z,31.50
2019-04-04T01:07:09.100Z,31.43
2019-04-04T01:09:40.116Z,35.83
2019-04-04T01:12:11.213Z,32.63
2019-04-04T01:14:42.527Z,34.33
2019-04-04T01:17:14.183Z,33.43
2019-04-04T01:19:48.841Z,33.87
2019-04-04T01:22:19.721Z,33.73
2019-04-04T01:24:51.309Z,34.47
2019-04-04T01:27:23.724Z,33.50
2019-04-04T01:29:54.643Z,30.30
2019-04-04T01:32:25.660Z,34.47
2019-04-04T01:35:00.334Z,35.23
2019-04-04T01:37:31.611Z,31.13
2019-04-04T01:40:02.859Z,33.80
2019-04-04T01:42:37.778Z,34.43
2019-04-04T01:45:09.170Z,37.63
2019-04-04T01:47:42.259Z,32.23
2019-04-04T01:50:13.584Z,33.93
2019-04-04T01:52:44.821Z,34.13
2019-04-04T01:55:16.347Z,33.50
2019-04-04T01:57:47.330Z,32.20
2019-04-04T02:00:20.826Z,40.70
2019-04-04T02:02:52.482Z,33.40
2019-04-04T02:05:26.700Z,35.20
2019-04-04T02:07:56.447Z,36.63
2019-04-04T02:10:27.459Z,35.30
2019-04-04T02:13:00.225Z,36.63
2019-04-04T02:15:31.319Z,35.40
2019-04-04T02:18:02.653Z,36.63
2019-04-04T02:20:34.411Z,37.53
2019-04-04T02:23:05.524Z,32.50
2019-04-04T02:25:37.529Z,33.50
2019-04-04T02:28:08.934Z,36.93
2019-04-04T02:30:41.191Z,38.60
2019-04-04T02:33:12.880Z,35.80
2019-04-04T02:35:45.011Z,36.10
2019-04-04T02:38:15.985Z,38.27
2019-04-04T02:40:48.275Z,39.77
2019-04-04T02:43:22.271Z,36.23
2019-04-04T02:45:53.407Z,40.90
2019-04-04T02:48:24.825Z,38.67
2019-04-04T02:50:56.275Z,36.97
2019-04-04T02:53:27.364Z,42.73
2019-04-04T02:56:02.282Z,39.83
2019-04-04T02:58:30.697Z,43.03
2019-04-04T03:01:02.888Z,40.67
2019-04-04T03:03:34.382Z,43.87
2019-04-04T03:06:05.385Z,46.10
2019-04-04T03:08:37.672Z,49.27
2019-04-04T03:11:09.111Z,43.87
2019-04-04T03:13:40.541Z,45.37
2019-04-04T03:16:11.575Z,42.30
2019-04-04T03:18:42.818Z,43.20
2019-04-04T03:21:13.956Z,39.77
2019-04-04T03:23:46.764Z,45.57
2019-04-04T03:26:20.506Z,42.87
2019-04-04T03:28:51.783Z,37.47
2019-04-04T03:31:23.179Z,41.53
2019-04-04T03:33:54.674Z,41.23
2019-04-04T03:36:26.505Z,43.47
2019-04-04T03:38:57.867Z,44.27
2019-04-04T03:41:30.322Z,41.77
2019-04-04T03:44:02.894Z,41.77
2019-04-04T03:46:38.585Z,40.50
2019-04-04T03:49:06.914Z,41.23
2019-04-04T03:51:38.386Z,41.40
2019-04-04T03:54:22.194Z,37.60
2019-04-04T03:56:50.369Z,40.23
2019-04-04T03:59:21.657Z,39.13
2019-04-04T04:01:53.116Z,37.23
2019-04-04T04:04:27.047Z,37.70
2019-04-04T04:06:57.206Z,40.40
2019-04-04T04:09:28.066Z,39.40
2019-04-04T04:12:01.980Z,38.27
2019-04-04T04:14:34.651Z,37.33
2019-04-04T04:17:06.129Z,37.57
2019-04-04T04:19:37.274Z,34.47
2019-04-04T04:22:12.710Z,33.30
2019-04-04T04:24:41.770Z,35.47
2019-04-04T04:27:15.502Z,36.50
2019-04-04T04:29:45.488Z,40.93
2019-04-04T04:32:21.488Z,43.53
2019-04-04T04:34:49.742Z,38.10
2019-04-04T04:37:21.135Z,37.33
2019-04-04T04:39:53.144Z,41.83
2019-04-04T04:42:26.574Z,37.43
2019-04-04T04:44:57.418Z,37.57
2019-04-04T04:47:29.046Z,41.87
2019-04-04T04:50:00.226Z,40.37
2019-04-04T04:52:31.328Z,39.97
2019-04-04T04:55:05.512Z,40.43
2019-04-04T04:57:39.684Z,43.00
2019-04-04T05:00:11.475Z,44.47
2019-04-04T05:02:42.766Z,45.43
2019-04-04T05:05:13.828Z,40.27
2019-04-04T05:07:45.096Z,40.00
2019-04-04T05:10:16.231Z,37.27
2019-04-04T05:12:47.829Z,39.73
2019-04-04T05:15:21.303Z,40.87
2019-04-04T05:17:52.254Z,41.50
2019-04-04T05:20:25.227Z,41.97
2019-04-04T05:22:56.090Z,38.93
2019-04-04T05:25:30.862Z,39.23
2019-04-04T05:27:59.959Z,41.63
2019-04-04T05:30:32.068Z,39.93
2019-04-04T05:33:03.475Z,43.37
2019-04-04T05:35:37.448Z,41.50
2019-04-04T05:38:12.245Z,39.93
2019-04-04T05:40:43.608Z,39.90
2019-04-04T05:43:15.093Z,37.97
2019-04-04T05:45:47.254Z,37.83
2019-04-04T05:48:18.997Z,40.13
2019-04-04T05:50:50.027Z,38.93
2019-04-04T05:53:21.581Z,37.07
2019-04-04T05:55:52.648Z,36.20
2019-04-04T05:58:24.713Z,38.73
2019-04-04T06:01:01.530Z,41.27
2019-04-04T06:03:31.571Z,38.10
2019-04-04T06:06:02.556Z,34.43
2019-04-04T06:08:33.859Z,40.77
2019-04-04T06:11:05.874Z,36.70
2019-04-04T06:13:37.661Z,37.37
2019-04-04T06:16:08.903Z,35.33
2019-04-04T06:18:42.710Z,29.17
2019-04-04T06:21:12.805Z,30.43
2019-04-04T06:23:45.949Z,29.90
2019-04-04T06:26:18.813Z,30.43
2019-04-04T06:28:49.741Z,29.87
2019-04-04T06:31:20.997Z,32.00
2019-04-04T06:33:51.822Z,30.07
2019-04-04T06:36:22.611Z,30.37
2019-04-04T06:38:54.109Z,23.77
2019-04-04T06:41:28.291Z,28.37
2019-04-04T06:43:59.485Z,25.37
2019-04-04T06:46:30.470Z,21.83
2019-04-04T06:49:03.944Z,22.80
2019-04-04T06:51:34.748Z,21.90
2019-04-04T06:54:05.732Z,22.53
2019-04-04T06:56:36.807Z,22.70
2019-04-04T06:59:11.247Z,23.03
2019-04-04T07:01:40.255Z,22.27
2019-04-04T07:04:11.476Z,22.07
2019-04-04T07:06:42.473Z,23.10
2019-04-04T07:09:13.759Z,22.77
2019-04-04T07:11:44.726Z,23.70
2019-04-04T07:14:15.732Z,19.00
2019-04-04T07:16:46.366Z,19.13
2019-04-04T07:19:17.113Z,20.27
2019-04-04T07:21:49.170Z,19.73
2019-04-04T07:24:20.312Z,19.83
2019-04-04T07:26:50.927Z,20.20
2019-04-04T07:29:23.009Z,19.40
2019-04-04T07:31:54.156Z,20.23
2019-04-04T07:34:25.747Z,16.57
2019-04-04T07:36:56.326Z,17.93
2019-04-04T07:39:26.866Z,20.67
2019-04-04T07:41:57.686Z,17.20
2019-04-04T07:44:28.448Z,16.03
2019-04-04T07:46:59.025Z,17.30
2019-04-04T07:49:30.023Z,14.90
2019-04-04T07:52:01.990Z,15.30
2019-04-04T07:54:33.171Z,17.37
2019-04-04T07:57:04.706Z,16.00
2019-04-04T07:59:35.420Z,14.70
2019-04-04T08:02:06.016Z,14.83
2019-04-04T08:04:36.721Z,15.97
2019-04-04T08:07:07.360Z,13.97
2019-04-04T08:09:38.086Z,17.13
2019-04-04T08:12:08.787Z,15.33
2019-04-04T08:14:39.690Z,13.13
2019-04-04T08:17:10.383Z,16.00
2019-04-04T08:19:41.241Z,14.10
2019-04-04T08:22:12.071Z,16.67
2019-04-04T08:24:43.063Z,15.47
2019-04-04T08:27:14.423Z,16.70
2019-04-04T08:29:45.160Z,14.80
2019-04-04T08:32:16.358Z,14.63
2019-04-04T08:34:46.934Z,16.63
2019-04-04T08:37:18.650Z,13.70
2019-04-04T08:39:49.395Z,14.90
2019-04-04T08:42:20.046Z,11.40
2019-04-04T08:44:50.889Z,14.67
2019-04-04T08:47:21.618Z,11.50
2019-04-04T08:49:52.269Z,10.93
2019-04-04T08:52:23.549Z,12.30
2019-04-04T08:54:54.395Z,9.70
2019-04-04T08:57:25.930Z,10.20
2019-04-04T08:59:56.720Z,11.80
2019-04-04T09:02:27.401Z,12.17
2019-04-04T09:05:10.905Z,9.80
2019-04-04T09:07:31.583Z,10.97
2019-04-04T09:10:03.483Z,11.03
2019-04-04T09:12:36.976Z,10.60
2019-04-04T09:15:08.802Z,12.10
2019-04-04T09:17:40.194Z,10.90
2019-04-04T09:20:11.632Z,13.23
2019-04-04T09:22:42.517Z,11.73
2019-04-04T09:25:13.291Z,12.17
2019-04-04T09:27:44.113Z,12.17
2019-04-04T09:30:17.008Z,11.30
2019-04-04T09:32:47.676Z,10.57
2019-04-04T09:35:21.364Z,10.70
2019-04-04T09:37:52.223Z,14.57
2019-04-04T09:40:22.858Z,12.27
2019-04-04T09:42:53.625Z,12.50
2019-04-04T09:45:24.979Z,12.80
2019-04-04T09:47:56.131Z,11.90
2019-04-04T09:50:27.898Z,12.90
2019-04-04T09:52:59.404Z,10.93
2019-04-04T09:55:30.639Z,13.03
2019-04-04T09:58:03.669Z,14.43
2019-04-04T10:00:36.829Z,13.47
2019-04-04T10:03:08.332Z,13.47
2019-04-04T10:05:40.919Z,10.60
2019-04-04T10:08:12.551Z,13.97
2019-04-04T10:10:44.247Z,14.00
2019-04-04T10:13:15.867Z,12.47
2019-04-04T10:15:47.935Z,13.37
2019-04-04T10:18:19.938Z,12.17
2019-04-04T10:20:52.710Z,17.60
2019-04-04T10:23:24.336Z,12.53
2019-04-04T10:25:55.905Z,14.50
2019-04-04T10:28:27.189Z,16.83
2019-04-04T10:30:59.042Z,16.73
2019-04-04T10:33:30.361Z,15.33
2019-04-04T10:36:01.592Z,15.17
2019-04-04T10:38:32.975Z,13.87
2019-04-04T10:41:03.766Z,17.93
2019-04-04T10:43:35.169Z,19.17
2019-04-04T10:46:06.832Z,17.13
2019-04-04T10:48:39.020Z,18.77
2019-04-04T10:51:12.240Z,18.30
2019-04-04T10:53:42.941Z,19.90
2019-04-04T10:56:13.535Z,19.33
2019-04-04T10:58:46.771Z,22.33
2019-04-04T11:01:17.740Z,18.40
2019-04-04T11:03:48.756Z,20.30
2019-04-04T11:06:21.584Z,22.50
2019-04-04T11:08:52.261Z,16.90
2019-04-04T11:11:23.275Z,19.27
2019-04-04T11:13:54.370Z,19.93
2019-04-04T11:16:30.216Z,18.87
2019-04-04T11:18:58.242Z,18.43
2019-04-04T11:21:29.996Z,18.83
2019-04-04T11:24:00.679Z,15.40
2019-04-04T11:26:31.443Z,15.10
2019-04-04T11:29:02.144Z,16.20
2019-04-04T11:31:34.879Z,15.80
2019-04-04T11:34:05.589Z,19.17
2019-04-04T11:36:38.777Z,16.83
2019-04-04T11:39:09.035Z,17.60
2019-04-04T11:41:39.725Z,15.90
2019-04-04T11:44:10.647Z,16.77
2019-04-04T11:46:41.289Z,17.27
2019-04-04T11:49:12.063Z,17.73
2019-04-04T11:51:42.728Z,20.43
2019-04-04T11:54:13.528Z,19.43
2019-04-04T11:56:45.187Z,18.53
2019-04-04T11:59:17.973Z,15.70
2019-04-04T12:01:49.571Z,15.23
2019-04-04T12:04:20.294Z,16.13
2019-04-04T12:06:51.058Z,18.10
2019-04-04T12:09:22.177Z,16.87
2019-04-04T12:11:53.009Z,15.33
2019-04-04T12:14:23.854Z,14.77
2019-04-04T12:16:55.893Z,15.20
2019-04-04T12:19:27.221Z,15.80
2019-04-04T12:21:57.862Z,15.33
2019-04-04T12:24:29.179Z,18.13
2019-04-04T12:27:02.637Z,18.77
2019-04-04T12:29:35.934Z,18.50
2019-04-04T12:32:06.725Z,16.27
2019-04-04T12:34:37.446Z,18.17
2019-04-04T12:37:08.290Z,15.87
2019-04-04T12:39:39.048Z,15.87
2019-04-04T12:42:09.739Z,17.57
2019-04-04T12:44:40.490Z,20.33
2019-04-04T12:47:14.077Z,17.03
2019-04-04T12:49:44.976Z,19.07
2019-04-04T12:52:16.234Z,19.33
2019-04-04T12:54:47.770Z,18.17
2019-04-04T12:57:18.415Z,22.40
2019-04-04T12:59:49.052Z,23.63
2019-04-04T13:02:19.834Z,24.00
2019-04-04T13:04:50.627Z,23.73
2019-04-04T13:07:22.294Z,26.77
2019-04-04T13:09:53.087Z,28.53
2019-04-04T13:12:23.778Z,25.70
2019-04-04T13:14:56.420Z,29.63
2019-04-04T13:17:28.804Z,25.77
2019-04-04T13:19:59.328Z,26.63
2019-04-04T13:22:33.262Z,27.70
2019-04-04T13:25:04.239Z,25.20
2019-04-04T13:27:35.529Z,23.43
2019-04-04T13:30:10.507Z,22.30
2019-04-04T13:32:41.035Z,21.77
2019-04-04T13:35:14.986Z,20.07
2019-04-04T13:37:45.818Z,24.10
2019-04-04T13:40:16.674Z,21.03
2019-04-04T13:42:47.350Z,22.30
2019-04-04T13:45:18.312Z,25.63
2019-04-04T13:47:49.945Z,22.30
2019-04-04T13:50:20.843Z,25.97
2019-04-04T13:52:52.859Z,25.23
2019-04-04T13:55:25.143Z,22.73
2019-04-04T13:57:55.902Z,29.10
2019-04-04T14:00:26.634Z,27.80
2019-04-04T14:02:57.297Z,23.57
2019-04-04T14:05:28.667Z,26.40
2019-04-04T14:08:00.734Z,23.93
2019-04-04T14:11:26.510Z,21.93
2019-04-04T14:17:43.562Z,24.13
2019-04-04T14:20:13.333Z,24.20
2019-04-04T14:22:57.657Z,23.90
2019-04-04T14:25:29.525Z,24.40
2019-04-04T14:28:01.794Z,27.23
2019-04-04T14:30:33.185Z,25.57
2019-04-04T14:33:04.046Z,23.10
2019-04-04T14:35:36.289Z,26.80
2019-04-04T14:38:07.352Z,24.93
2019-04-04T14:40:39.784Z,24.63
2019-04-04T14:43:10.621Z,21.20
2019-04-04T14:45:41.869Z,23.97
2019-04-04T14:48:12.689Z,25.10
2019-04-04T14:50:43.410Z,22.60
2019-04-04T14:53:14.522Z,23.63
2019-04-04T14:55:45.390Z,25.50
2019-04-04T14:58:16.556Z,22.77
2019-04-04T15:00:47.597Z,23.80
2019-04-04T15:03:18.753Z,23.00
2019-04-04T15:05:50.109Z,20.23
2019-04-04T15:08:20.933Z,25.30
2019-04-04T15:10:52.152Z,22.13
2019-04-04T15:13:23.075Z,24.63
2019-04-04T15:16:26.329Z,23.03
2019-04-04T15:18:57.406Z,22.23
2019-04-04T15:21:28.101Z,22.20
2019-04-04T15:23:59.282Z,20.10
2019-04-04T15:26:29.108Z,19.03
2019-04-04T15:28:59.876Z,18.67
2019-04-04T15:31:31.541Z,22.33
2019-04-04T15:34:02.300Z,20.00
2019-04-04T15:36:33.023Z,21.67
2019-04-04T15:39:05.309Z,22.50
2019-04-04T15:41:37.687Z,22.37
2019-04-04T15:44:09.776Z,21.13
2019-04-04T15:46:41.203Z,22.07
2019-04-04T15:49:12.144Z,20.70
2019-04-04T15:51:42.879Z,18.90
2019-04-04T15:54:13.561Z,22.23
2019-04-04T15:56:44.434Z,17.33
2019-04-04T15:59:15.263Z,17.00
2019-04-04T16:01:46.594Z,17.03
2019-04-04T16:04:17.458Z,19.60
2019-04-04T16:06:48.144Z,21.03
2019-04-04T16:09:18.906Z,21.40
2019-04-04T16:11:50.151Z,20.13
2019-04-04T16:14:21.363Z,18.63
2019-04-04T16:16:52.692Z,24.60
2019-04-04T16:19:25.048Z,21.57
2019-04-04T16:21:56.666Z,23.30
2019-04-04T16:24:27.406Z,20.13
2019-04-04T16:26:58.022Z,22.30
2019-04-04T16:29:30.623Z,20.37
2019-04-04T16:32:01.889Z,23.77
2019-04-04T16:34:33.085Z,18.03
2019-04-04T16:37:06.302Z,18.17
2019-04-04T16:39:37.858Z,22.30
2019-04-04T16:42:15.104Z,23.30
2019-04-04T16:44:46.738Z,22.70
2019-04-04T16:47:18.951Z,20.83
2019-04-04T16:49:50.211Z,17.33
2019-04-04T16:52:23.529Z,17.27
2019-04-04T16:54:56.631Z,16.60
2019-04-04T16:57:27.548Z,13.40
2019-04-04T16:59:58.255Z,16.70
2019-04-04T17:02:29.026Z,16.70
2019-04-04T17:05:00.613Z,17.47
2019-04-04T17:07:32.038Z,14.83
2019-04-04T17:10:03.990Z,14.70
2019-04-04T17:12:34.614Z,21.33
2019-04-04T17:15:06.608Z,21.70
2019-04-04T17:17:37.871Z,23.43
2019-04-04T17:20:10.120Z,20.50
2019-04-04T17:22:41.024Z,17.50
2019-04-04T17:25:11.875Z,15.30
2019-04-04T17:27:42.793Z,19.00
2019-04-04T17:30:15.125Z,20.27
2019-04-04T17:32:49.598Z,21.83
2019-04-04T17:35:23.346Z,21.37
2019-04-04T17:37:55.162Z,20.37
2019-04-04T17:40:25.952Z,20.20
2019-04-04T17:42:56.876Z,19.97
2019-04-04T17:45:27.649Z,22.87
2019-04-04T17:47:59.085Z,24.73
2019-04-04T17:50:40.576Z,27.07
2019-04-04T17:53:09.025Z,24.90
2019-04-04T17:55:40.165Z,29.17
2019-04-04T17:58:11.575Z,25.93
2019-04-04T18:00:42.612Z,24.60
2019-04-04T18:03:15.585Z,29.50
2019-04-04T18:05:49.084Z,31.73
2019-04-04T18:08:20.341Z,27.60
2019-04-04T18:10:51.017Z,27.23
2019-04-04T18:13:21.967Z,30.37
2019-04-04T18:15:52.803Z,34.27
2019-04-04T18:18:23.691Z,33.47
2019-04-04T18:20:56.681Z,37.47
2019-04-04T18:23:27.348Z,36.33
2019-04-04T18:25:58.162Z,40.07
2019-04-04T18:28:28.852Z,35.30
2019-04-04T18:30:59.570Z,37.97
2019-04-04T18:33:30.802Z,36.80
2019-04-04T18:36:01.591Z,48.03
2019-04-04T18:38:32.370Z,40.70
2019-04-04T18:41:03.410Z,36.97
2019-04-04T18:43:34.196Z,50.43
2019-04-04T18:46:05.210Z,46.40
2019-04-04T18:48:36.048Z,51.23
2019-04-04T18:51:06.834Z,47.77
2019-04-04T18:53:37.851Z,43.40
2019-04-04T18:56:10.665Z,43.13
2019-04-04T18:58:41.492Z,40.17
2019-04-04T19:01:12.534Z,44.73
2019-04-04T19:03:46.210Z,42.00
2019-04-04T19:06:20.493Z,44.03
2019-04-04T19:08:52.106Z,48.30
2019-04-04T19:11:23.953Z,43.33
2019-04-04T19:13:55.041Z,41.47
2019-04-04T19:16:26.881Z,47.60
2019-04-04T19:18:58.875Z,48.67
2019-04-04T19:21:29.937Z,52.20
2019-04-04T19:24:01.153Z,57.70
2019-04-04T19:26:33.255Z,54.37
2019-04-04T19:29:04.870Z,45.53
2019-04-04T19:31:38.085Z,48.33
2019-04-04T19:34:08.764Z,54.53
2019-04-04T19:36:41.788Z,45.40
2019-04-04T19:39:17.109Z,51.00
2019-04-04T19:41:47.936Z,48.47
2019-04-04T19:44:20.100Z,53.20
2019-04-04T19:46:59.637Z,55.10
2019-04-04T19:49:30.320Z,56.67
2019-04-04T19:52:01.352Z,62.30
2019-04-04T19:54:32.512Z,60.37
2019-04-04T19:57:04.611Z,66.33
2019-04-04T19:59:35.364Z,66.37
2019-04-04T20:02:07.183Z,59.13
2019-04-04T20:04:38.046Z,64.67
2019-04-04T20:07:16.053Z,52.87
2019-04-04T20:09:46.844Z,56.50
2019-04-04T20:12:17.662Z,53.17
2019-04-04T20:14:51.698Z,54.00
2019-04-04T20:17:23.498Z,48.70
2019-04-04T20:19:55.159Z,57.80
2019-04-04T20:22:26.138Z,55.90
2019-04-04T20:24:59.746Z,64.13
2019-04-04T20:27:32.251Z,60.83
2019-04-04T20:30:03.491Z,50.70
2019-04-04T20:32:34.211Z,55.23
2019-04-04T20:35:05.436Z,53.43
2019-04-04T20:37:36.243Z,49.73
2019-04-04T20:40:11.228Z,52.83
2019-04-04T20:42:41.980Z,53.90
2019-04-04T20:45:13.456Z,58.70
2019-04-04T20:47:44.805Z,54.20
2019-04-04T20:50:15.666Z,51.73
2019-04-04T20:52:47.668Z,49.63
2019-04-04T20:55:19.233Z,58.73
2019-04-04T20:57:50.416Z,53.93
2019-04-04T21:00:21.429Z,62.87
2019-04-04T21:02:52.138Z,45.50
2019-04-04T21:05:23.919Z,48.17
2019-04-04T21:07:54.845Z,46.67
2019-04-04T21:10:28.213Z,47.43
2019-04-04T21:13:01.461Z,48.07
2019-04-04T21:15:33.219Z,43.30
2019-04-04T21:18:05.540Z,45.40
2019-04-04T21:20:37.435Z,45.37
2019-04-04T21:23:08.739Z,46.77
2019-04-04T21:25:39.521Z,37.70
2019-04-04T21:28:10.070Z,46.67
2019-04-04T21:30:40.851Z,38.03
2019-04-04T21:33:13.396Z,41.10
2019-04-04T21:35:44.651Z,42.83
2019-04-04T21:38:15.790Z,42.83
2019-04-04T21:40:46.583Z,40.77
2019-04-04T21:43:17.820Z,46.17
2019-04-04T21:45:49.163Z,44.83
2019-04-04T21:48:21.577Z,43.27
2019-04-04T21:50:52.725Z,44.07
2019-04-04T21:53:24.158Z,47.27
2019-04-04T21:55:55.833Z,44.47
2019-04-04T21:58:27.933Z,41.97
2019-04-04T22:01:00.582Z,35.93
2019-04-04T22:03:32.958Z,36.37
2019-04-04T22:06:07.298Z,36.23
2019-04-04T22:08:43.417Z,36.13
2019-04-04T22:11:12.281Z,35.40
2019-04-04T22:13:46.507Z,32.47
2019-04-04T22:16:18.075Z,33.93
2019-04-04T22:18:51.000Z,39.80
2019-04-04T22:21:21.855Z,39.20
2019-04-04T22:23:52.973Z,40.80
2019-04-04T22:26:24.370Z,45.20
2019-04-04T22:28:55.531Z,40.67
2019-04-04T22:31:26.788Z,40.57
2019-04-04T22:33:58.785Z,42.83
2019-04-04T22:36:31.742Z,40.20
2019-04-04T22:39:04.780Z,40.80
2019-04-04T22:41:38.129Z,44.77
2019-04-04T22:44:11.262Z,45.40
2019-04-04T22:46:42.847Z,41.03
2019-04-04T22:49:15.282Z,40.60
2019-04-04T22:51:46.797Z,44.73
2019-04-04T22:54:17.969Z,43.27
2019-04-04T22:56:49.019Z,40.63
2019-04-04T22:59:20.008Z,39.73
2019-04-04T23:01:56.607Z,44.53
2019-04-04T23:04:27.659Z,36.27
2019-04-04T23:06:58.978Z,40.80
2019-04-04T23:09:30.290Z,41.70
2019-04-04T23:12:01.698Z,41.40
2019-04-04T23:14:42.219Z,40.50
2019-04-04T23:17:08.002Z,45.40
2019-04-04T23:19:38.964Z,45.97
2019-04-04T23:22:10.383Z,49.97
2019-04-04T23:24:41.339Z,44.00
2019-04-04T23:27:12.411Z,47.33
2019-04-04T23:29:43.546Z,62.97
2019-04-04T23:32:14.718Z,44.80
2019-04-04T23:34:45.606Z,47.67
2019-04-04T23:37:16.822Z,51.93
2019-04-04T23:39:47.806Z,50.73
2019-04-04T23:42:18.791Z,64.13
2019-04-04T23:45:00.400Z,61.30
2019-04-04T23:47:22.802Z,62.27
2019-04-04T23:49:55.395Z,51.27
2019-04-04T23:52:27.315Z,57.83
2019-04-04T23:55:00.741Z,48.67
2019-04-04T23:57:32.259Z,51.23
